Time;durP1;ratioP1;P1;durP2;ratioP2;P2;SDS_P1;SDS_P2;PMS_P1;PMS_P2;Temp;Humidity;BMP_temperature;BMP_pressure;BME280_temperature;BME280_humidity;BME280_pressure;Samples;Min_cycle;Max_cycle;Signal;HPM_P1;HPM_P2
2023/05/22 00:01:03;;;;;;;;;;;18.70;99.90;;;;;;5045528;28;19928;-68
2023/05/22 00:03:29;;;;;;;;;;;18.80;99.90;;;;;;5042159;28;19921;-68
2023/05/22 00:05:57;;;;;;;;;;;18.70;99.90;;;;;;5034466;28;19928;-68
2023/05/22 00:08:26;;;;;;;;;;;18.70;99.90;;;;;;5037339;28;19931;-67
2023/05/22 00:10:52;;;;;;;;;;;18.70;99.90;;;;;;5046898;28;19921;-68
2023/05/22 00:13:17;;;;;;;;;;;18.60;99.90;;;;;;5052682;28;19928;-68
2023/05/22 00:15:43;;;;;;;;;;;18.60;99.90;;;;;;5048578;28;19928;-68
2023/05/22 00:18:08;;;;;;;;;;;18.50;99.90;;;;;;5043192;28;19921;-67
2023/05/22 00:20:37;;;;;;;;;;;18.50;99.90;;;;;;5045140;28;19925;-68
2023/05/22 00:23:10;;;;;;;;;;;18.40;99.90;;;;;;5054132;28;19921;-67
2023/05/22 00:25:36;;;;;;;;;;;18.50;99.90;;;;;;5048921;28;19933;-68
2023/05/22 00:28:01;;;;;;;;;;;18.40;99.90;;;;;;5044807;28;19928;-67
2023/05/22 00:30:27;;;;;;;;;;;18.40;99.90;;;;;;5045135;28;19927;-68
2023/05/22 00:32:52;;;;;;;;;;;18.30;99.90;;;;;;5047859;28;20291;-67
2023/05/22 00:35:18;;;;;;;;;;;18.30;99.90;;;;;;5038079;28;19927;-67
2023/05/22 00:37:44;;;;;;;;;;;18.30;99.90;;;;;;5043680;28;19921;-67
2023/05/22 00:40:11;;;;;;;;;;;18.20;99.90;;;;;;5044234;28;19936;-66
2023/05/22 00:42:36;;;;;;;;;;;18.20;99.90;;;;;;5038415;28;19920;-65
2023/05/22 00:45:02;;;;;;;;;;;18.20;99.90;;;;;;5034996;28;20494;-68
2023/05/22 00:47:40;;;;;;;;;;;18.20;99.90;;;;;;5053105;28;19925;-68
2023/05/22 00:50:06;;;;;;;;;;;18.10;99.90;;;;;;5045264;28;19979;-68
2023/05/22 00:52:33;;;;;;;;;;;18.10;99.90;;;;;;5047037;28;20330;-68
2023/05/22 00:54:58;;;;;;;;;;;18.10;99.90;;;;;;5048689;28;19943;-68
2023/05/22 00:57:24;;;;;;;;;;;18.20;99.90;;;;;;5053052;28;20391;-67
2023/05/22 00:59:50;;;;;;;;;;;18.10;99.90;;;;;;5041621;28;19925;-67
2023/05/22 01:02:16;;;;;;;;;;;18.10;99.90;;;;;;5043304;28;19940;-67
2023/05/22 01:04:47;;;;;;;;;;;18.10;99.90;;;;;;5053286;28;19921;-68
2023/05/22 01:07:16;;;;;;;;;;;18.10;99.90;;;;;;5039597;28;19928;-67
2023/05/22 01:09:42;;;;;;;;;;;18.00;99.90;;;;;;5041495;28;19928;-67
2023/05/22 01:12:10;;;;;;;;;;;18.00;99.90;;;;;;5049889;28;19920;-67
2023/05/22 01:15:11;;;;;;;;;;;18.00;99.90;;;;;;5049964;28;19975;-67
2023/05/22 01:17:52;;;;;;;;;;;18.10;99.90;;;;;;4988719;28;19954;-67
2023/05/22 01:20:33;;;;;;;;;;;18.00;99.90;;;;;;5038332;28;19929;-67
2023/05/22 01:23:17;;;;;;;;;;;18.00;99.90;;;;;;5051839;28;19931;-65
2023/05/22 01:25:44;;;;;;;;;;;18.00;99.90;;;;;;5049320;28;20395;-68
2023/05/22 01:28:17;;;;;;;;;;;18.00;99.90;;;;;;5040939;28;19932;-68
2023/05/22 01:30:43;;;;;;;;;;;17.90;99.90;;;;;;5052773;28;19927;-67
2023/05/22 01:33:08;;;;;;;;;;;17.90;99.90;;;;;;5039242;28;19921;-66
2023/05/22 01:35:37;;;;;;;;;;;17.90;99.90;;;;;;5040865;28;19921;-68
2023/05/22 01:38:02;;;;;;;;;;;17.90;99.90;;;;;;5048479;28;19972;-67
2023/05/22 01:40:28;;;;;;;;;;;17.90;99.90;;;;;;5042916;28;19972;-68
2023/05/22 01:42:54;;;;;;;;;;;17.90;99.90;;;;;;5046811;28;19975;-67
2023/05/22 01:45:19;;;;;;;;;;;17.90;99.90;;;;;;5040956;28;19924;-68
2023/05/22 01:47:45;;;;;;;;;;;17.90;99.90;;;;;;5042988;28;19925;-67
2023/05/22 01:50:11;;;;;;;;;;;17.80;99.90;;;;;;5041105;28;20375;-67
2023/05/22 01:52:51;;;;;;;;;;;17.80;99.90;;;;;;5045550;28;19921;-67
2023/05/22 01:55:26;;;;;;;;;;;17.70;99.90;;;;;;5049668;28;19928;-68
2023/05/22 01:57:55;;;;;;;;;;;17.70;99.90;;;;;;5042293;28;19929;-67
2023/05/22 02:00:22;;;;;;;;;;;17.70;99.90;;;;;;5034381;28;19925;-67
2023/05/22 02:02:50;;;;;;;;;;;17.70;99.90;;;;;;5044611;28;20397;-67
2023/05/22 02:05:17;;;;;;;;;;;17.60;99.90;;;;;;5043096;28;20370;-67
2023/05/22 02:07:44;;;;;;;;;;;17.60;99.90;;;;;;5051619;28;19925;-68
2023/05/22 02:10:10;;;;;;;;;;;17.60;99.90;;;;;;5039617;28;20374;-67
2023/05/22 02:12:36;;;;;;;;;;;17.60;99.90;;;;;;5045344;28;20462;-66
2023/05/22 02:15:02;;;;;;;;;;;17.60;99.90;;;;;;5031931;28;20024;-66
2023/05/22 02:17:27;;;;;;;;;;;17.60;99.90;;;;;;5033369;28;19920;-68
2023/05/22 02:19:53;;;;;;;;;;;17.60;99.90;;;;;;5042858;28;20566;-66
2023/05/22 02:22:18;;;;;;;;;;;17.50;99.90;;;;;;5032055;28;19921;-68
2023/05/22 02:24:47;;;;;;;;;;;17.50;99.90;;;;;;5033609;28;19928;-66
2023/05/22 02:27:13;;;;;;;;;;;17.40;99.90;;;;;;5037671;28;19972;-67
2023/05/22 02:29:39;;;;;;;;;;;17.40;99.90;;;;;;5043029;28;19948;-67
2023/05/22 02:32:05;;;;;;;;;;;17.40;99.90;;;;;;5051755;28;19928;-67
2023/05/22 02:34:30;;;;;;;;;;;17.40;99.90;;;;;;5035249;28;19921;-67
2023/05/22 02:37:02;;;;;;;;;;;17.30;99.90;;;;;;5040877;28;20514;-68
2023/05/22 02:39:28;;;;;;;;;;;17.30;99.90;;;;;;5051107;28;20386;-67
2023/05/22 02:41:53;;;;;;;;;;;17.30;99.90;;;;;;5041420;28;19921;-67
2023/05/22 02:44:19;;;;;;;;;;;17.30;99.90;;;;;;5043707;28;20310;-68
2023/05/22 02:46:46;;;;;;;;;;;17.20;99.90;;;;;;5045610;28;19924;-67
2023/05/22 02:49:11;;;;;;;;;;;17.30;99.90;;;;;;5051026;28;20279;-67
2023/05/22 02:51:37;;;;;;;;;;;17.20;99.90;;;;;;5033817;28;20386;-67
2023/05/22 02:54:02;;;;;;;;;;;17.30;99.90;;;;;;5030510;28;19921;-68
2023/05/22 02:56:28;;;;;;;;;;;17.30;99.90;;;;;;5044223;28;19921;-67
2023/05/22 02:58:54;;;;;;;;;;;17.30;99.90;;;;;;5033136;28;19925;-65
2023/05/22 03:01:20;;;;;;;;;;;17.30;99.90;;;;;;5028201;28;20720;-65
2023/05/22 03:03:47;;;;;;;;;;;17.30;99.90;;;;;;5033951;28;19972;-68
2023/05/22 03:06:13;;;;;;;;;;;17.30;99.90;;;;;;5033566;28;19960;-65
2023/05/22 03:08:42;;;;;;;;;;;17.30;99.90;;;;;;5035728;28;19921;-68
2023/05/22 03:11:08;;;;;;;;;;;17.30;99.90;;;;;;5033261;28;20635;-65
2023/05/22 03:13:33;;;;;;;;;;;17.30;99.90;;;;;;5048122;28;19996;-67
2023/05/22 03:15:59;;;;;;;;;;;17.20;99.90;;;;;;5045440;28;19953;-67
2023/05/22 03:18:25;;;;;;;;;;;17.10;99.90;;;;;;5041105;28;19920;-68
2023/05/22 03:20:50;;;;;;;;;;;17.20;99.90;;;;;;5045358;28;19927;-67
2023/05/22 03:23:16;;;;;;;;;;;17.20;99.90;;;;;;5047339;28;19925;-67
2023/05/22 03:25:42;;;;;;;;;;;17.20;99.90;;;;;;5053884;28;19921;-67
2023/05/22 03:28:07;;;;;;;;;;;17.20;99.90;;;;;;5045889;28;19921;-68
2023/05/22 03:30:33;;;;;;;;;;;17.30;99.90;;;;;;5050427;28;19971;-67
2023/05/22 03:32:58;;;;;;;;;;;17.20;99.90;;;;;;5039729;28;19921;-68
2023/05/22 03:35:25;;;;;;;;;;;17.20;99.90;;;;;;5045746;28;19924;-67
2023/05/22 03:37:50;;;;;;;;;;;17.20;99.90;;;;;;5054750;28;20007;-67
2023/05/22 03:40:16;;;;;;;;;;;17.20;99.90;;;;;;5041949;28;20055;-65
2023/05/22 03:42:41;;;;;;;;;;;17.10;99.90;;;;;;5033917;28;20019;-67
2023/05/22 03:45:07;;;;;;;;;;;17.10;99.90;;;;;;5029645;28;19921;-68
2023/05/22 03:47:32;;;;;;;;;;;17.10;99.90;;;;;;5038758;28;20273;-67
2023/05/22 03:49:58;;;;;;;;;;;17.10;99.90;;;;;;5040686;28;19921;-68
2023/05/22 03:52:23;;;;;;;;;;;17.00;99.90;;;;;;5044794;28;19972;-68
2023/05/22 03:54:49;;;;;;;;;;;17.00;99.90;;;;;;5064508;28;19921;-67
2023/05/22 03:57:15;;;;;;;;;;;17.10;99.90;;;;;;5043925;28;19920;-66
2023/05/22 03:59:40;;;;;;;;;;;17.20;99.90;;;;;;5036105;28;20564;-68
2023/05/22 04:02:06;;;;;;;;;;;17.20;99.90;;;;;;5036239;28;19969;-66
2023/05/22 04:04:32;;;;;;;;;;;17.20;99.90;;;;;;5046640;28;19928;-67
2023/05/22 04:06:58;;;;;;;;;;;17.20;99.90;;;;;;5039403;28;19925;-68
2023/05/22 04:09:25;;;;;;;;;;;17.20;99.90;;;;;;5045308;28;20043;-68
2023/05/22 04:11:52;;;;;;;;;;;17.20;99.90;;;;;;5054222;28;19920;-67
2023/05/22 04:14:17;;;;;;;;;;;17.20;99.90;;;;;;5042616;28;19921;-66
2023/05/22 04:16:43;;;;;;;;;;;17.20;99.90;;;;;;5044714;28;19928;-68
2023/05/22 04:19:08;;;;;;;;;;;17.20;99.90;;;;;;5050203;28;19924;-68
2023/05/22 04:21:34;;;;;;;;;;;17.20;99.90;;;;;;5054159;28;19921;-68
2023/05/22 04:24:00;;;;;;;;;;;17.20;99.90;;;;;;5035151;28;20370;-66
2023/05/22 04:26:28;;;;;;;;;;;17.20;99.90;;;;;;5044013;28;20463;-65
2023/05/22 04:28:54;;;;;;;;;;;17.20;99.90;;;;;;5038616;28;19960;-67
2023/05/22 04:31:21;;;;;;;;;;;17.20;99.90;;;;;;5038371;28;20011;-68
2023/05/22 04:33:48;;;;;;;;;;;17.20;99.90;;;;;;5039387;28;19932;-68
2023/05/22 04:36:14;;;;;;;;;;;17.20;99.90;;;;;;5051081;28;20314;-67
2023/05/22 04:38:40;;;;;;;;;;;17.30;99.90;;;;;;5052266;22;19921;-67
2023/05/22 04:41:07;;;;;;;;;;;17.30;99.90;;;;;;5051255;28;19928;-66
2023/05/22 04:43:33;;;;;;;;;;;17.30;99.90;;;;;;5053079;28;20015;-66
2023/05/22 04:45:59;;;;;;;;;;;17.30;99.90;;;;;;5039342;28;20383;-66
2023/05/22 04:48:24;;;;;;;;;;;17.30;99.90;;;;;;5043475;28;19925;-66
2023/05/22 04:50:50;;;;;;;;;;;17.40;99.90;;;;;;5047349;28;19931;-66
2023/05/22 04:53:16;;;;;;;;;;;17.40;99.90;;;;;;5046038;28;19932;-66
2023/05/22 04:55:42;;;;;;;;;;;17.40;99.90;;;;;;5043310;28;19921;-66
2023/05/22 04:58:08;;;;;;;;;;;17.40;99.90;;;;;;5054065;28;19928;-66
2023/05/22 05:00:34;;;;;;;;;;;17.40;99.90;;;;;;5038541;28;19924;-67
2023/05/22 05:02:59;;;;;;;;;;;17.40;99.90;;;;;;5041076;28;19924;-67
2023/05/22 05:05:25;;;;;;;;;;;17.40;99.90;;;;;;5041162;28;19925;-66
2023/05/22 05:07:50;;;;;;;;;;;17.40;99.90;;;;;;5051988;28;20131;-67
2023/05/22 05:10:19;;;;;;;;;;;17.40;99.90;;;;;;5052586;28;19921;-66
2023/05/22 05:12:44;;;;;;;;;;;17.40;99.90;;;;;;5045887;28;20513;-66
2023/05/22 05:15:10;;;;;;;;;;;17.40;99.90;;;;;;5044796;28;19976;-70
2023/05/22 05:17:36;;;;;;;;;;;17.40;99.90;;;;;;5036416;28;19975;-67
2023/05/22 05:20:04;;;;;;;;;;;17.40;99.90;;;;;;5034731;28;19921;-68
2023/05/22 05:22:29;;;;;;;;;;;17.40;99.90;;;;;;5029764;28;19925;-67
2023/05/22 05:24:55;;;;;;;;;;;17.50;99.90;;;;;;5039598;28;19928;-70
2023/05/22 05:27:21;;;;;;;;;;;17.50;99.90;;;;;;5050944;28;19959;-67
2023/05/22 05:29:47;;;;;;;;;;;17.50;99.90;;;;;;5031036;28;19998;-70
2023/05/22 05:32:12;;;;;;;;;;;17.60;99.90;;;;;;5036948;28;20465;-66
2023/05/22 05:34:38;;;;;;;;;;;17.60;99.90;;;;;;5042512;28;20382;-70
2023/05/22 05:37:03;;;;;;;;;;;17.60;99.90;;;;;;5035323;28;20325;-69
2023/05/22 05:39:29;;;;;;;;;;;17.60;99.90;;;;;;5030104;28;19978;-66
2023/05/22 05:41:54;;;;;;;;;;;17.60;99.90;;;;;;5039643;28;19931;-66
2023/05/22 05:44:20;;;;;;;;;;;17.70;99.90;;;;;;5041685;28;19924;-68
2023/05/22 05:46:45;;;;;;;;;;;17.70;99.90;;;;;;5044596;28;19925;-66
2023/05/22 05:49:11;;;;;;;;;;;17.70;99.90;;;;;;5037348;28;19921;-66
2023/05/22 05:51:37;;;;;;;;;;;17.70;99.90;;;;;;5045746;28;19921;-65
2023/05/22 05:54:03;;;;;;;;;;;17.70;99.90;;;;;;5044273;28;19921;-66
2023/05/22 05:56:28;;;;;;;;;;;17.70;99.90;;;;;;5045733;28;19931;-65
2023/05/22 05:58:54;;;;;;;;;;;17.70;99.90;;;;;;5049032;28;19943;-65
2023/05/22 06:01:21;;;;;;;;;;;17.70;99.90;;;;;;5033977;28;20060;-68
2023/05/22 06:03:47;;;;;;;;;;;17.70;99.90;;;;;;5038293;28;19932;-66
2023/05/22 06:06:12;;;;;;;;;;;17.70;99.90;;;;;;5043099;28;19921;-68
2023/05/22 06:08:38;;;;;;;;;;;17.70;99.90;;;;;;5046144;28;20287;-66
2023/05/22 06:11:04;;;;;;;;;;;17.70;99.90;;;;;;5037560;28;19995;-66
2023/05/22 06:13:29;;;;;;;;;;;17.80;99.90;;;;;;5045237;28;19956;-66
2023/05/22 06:15:55;;;;;;;;;;;17.90;99.90;;;;;;5050959;28;19920;-66
2023/05/22 06:18:22;;;;;;;;;;;17.90;99.90;;;;;;5051730;28;19921;-66
2023/05/22 06:20:47;;;;;;;;;;;17.90;99.90;;;;;;5035443;28;20383;-69
2023/05/22 06:23:13;;;;;;;;;;;17.90;99.90;;;;;;5028840;28;19978;-66
2023/05/22 06:25:38;;;;;;;;;;;18.10;99.90;;;;;;5036841;28;19921;-66
2023/05/22 06:28:05;;;;;;;;;;;18.10;99.90;;;;;;5038345;28;19956;-66
2023/05/22 06:30:30;;;;;;;;;;;18.20;99.90;;;;;;5046290;28;19929;-66
2023/05/22 06:32:56;;;;;;;;;;;18.30;99.90;;;;;;5046305;28;19982;-66
2023/05/22 06:35:21;;;;;;;;;;;18.30;99.90;;;;;;5043487;28;19925;-65
2023/05/22 06:37:47;;;;;;;;;;;18.40;99.90;;;;;;5050463;28;19924;-66
2023/05/22 06:40:13;;;;;;;;;;;18.50;99.90;;;;;;5050255;28;19928;-66
2023/05/22 06:42:38;;;;;;;;;;;18.60;99.90;;;;;;5046739;28;19925;-67
2023/05/22 06:45:04;;;;;;;;;;;18.60;99.90;;;;;;5037453;28;19929;-66
2023/05/22 06:47:30;;;;;;;;;;;18.70;99.90;;;;;;5047889;28;20008;-67
2023/05/22 06:49:56;;;;;;;;;;;18.60;99.90;;;;;;5051319;28;20018;-67
2023/05/22 06:52:21;;;;;;;;;;;18.70;99.90;;;;;;5042910;28;20573;-66
2023/05/22 06:54:47;;;;;;;;;;;18.70;99.90;;;;;;5041886;28;19973;-66
2023/05/22 06:57:13;;;;;;;;;;;18.80;99.90;;;;;;5045366;28;19970;-69
2023/05/22 06:59:38;;;;;;;;;;;18.80;99.90;;;;;;5034997;28;19920;-68
2023/05/22 07:02:04;;;;;;;;;;;18.80;99.90;;;;;;5036450;28;19990;-67
2023/05/22 07:04:30;;;;;;;;;;;18.80;99.90;;;;;;5034781;28;19921;-69
2023/05/22 07:06:55;;;;;;;;;;;18.80;99.90;;;;;;5046566;28;19966;-66
2023/05/22 07:09:21;;;;;;;;;;;18.80;99.90;;;;;;5049126;28;19925;-66
2023/05/22 07:11:46;;;;;;;;;;;18.80;99.90;;;;;;5044986;28;19925;-65
2023/05/22 07:14:12;;;;;;;;;;;18.80;99.90;;;;;;5054242;28;19921;-66
2023/05/22 07:16:40;;;;;;;;;;;18.80;99.90;;;;;;5049634;28;20967;-66
2023/05/22 07:19:07;;;;;;;;;;;18.70;99.90;;;;;;5043636;28;20432;-66
2023/05/22 07:21:34;;;;;;;;;;;18.70;99.90;;;;;;5046159;28;19925;-66
2023/05/22 07:24:02;;;;;;;;;;;18.60;99.90;;;;;;5044303;28;20008;-66
2023/05/22 07:26:28;;;;;;;;;;;18.60;99.90;;;;;;5048507;28;19925;-67
2023/05/22 07:28:54;;;;;;;;;;;18.50;99.90;;;;;;5043917;28;19952;-66
2023/05/22 07:31:19;;;;;;;;;;;18.60;99.90;;;;;;5048394;28;20030;-67
2023/05/22 07:33:45;;;;;;;;;;;18.60;99.90;;;;;;5040593;28;20815;-65
2023/05/22 07:36:11;;;;;;;;;;;18.60;99.90;;;;;;5036715;28;19929;-66
2023/05/22 07:38:36;;;;;;;;;;;18.60;99.90;;;;;;5043290;28;20505;-66
2023/05/22 07:41:03;;;;;;;;;;;18.70;99.90;;;;;;5051292;28;19929;-67
2023/05/22 07:43:29;;;;;;;;;;;18.70;99.90;;;;;;5050963;28;20001;-66
2023/05/22 07:45:54;;;;;;;;;;;18.70;99.90;;;;;;5044493;28;19962;-66
2023/05/22 07:48:20;;;;;;;;;;;18.80;99.90;;;;;;5048400;28;20260;-67
2023/05/22 07:50:46;;;;;;;;;;;18.70;99.90;;;;;;5043201;28;19928;-66
2023/05/22 07:53:12;;;;;;;;;;;18.70;99.90;;;;;;5048178;28;19920;-67
2023/05/22 07:55:38;;;;;;;;;;;18.60;99.90;;;;;;5050852;28;19928;-65
2023/05/22 07:58:04;;;;;;;;;;;18.70;99.90;;;;;;5046969;28;19921;-66
2023/05/22 08:00:30;;;;;;;;;;;18.70;99.90;;;;;;5042364;28;19920;-66
2023/05/22 08:02:55;;;;;;;;;;;18.70;99.90;;;;;;5042921;28;19971;-66
2023/05/22 08:05:21;;;;;;;;;;;18.70;99.90;;;;;;5045995;28;19921;-66
2023/05/22 08:07:46;;;;;;;;;;;18.80;99.90;;;;;;5032881;28;19928;-66
2023/05/22 08:10:13;;;;;;;;;;;18.80;99.90;;;;;;5042423;28;20034;-66
2023/05/22 08:12:38;;;;;;;;;;;18.90;99.90;;;;;;5044952;28;19921;-66
2023/05/22 08:15:04;;;;;;;;;;;18.90;99.90;;;;;;5036950;28;20554;-66
2023/05/22 08:17:30;;;;;;;;;;;19.00;99.90;;;;;;5047248;28;19968;-66
2023/05/22 08:19:55;;;;;;;;;;;19.10;99.90;;;;;;5047427;28;19925;-66
2023/05/22 08:22:21;;;;;;;;;;;19.20;99.90;;;;;;5053593;28;19925;-66
2023/05/22 08:24:46;;;;;;;;;;;19.30;99.90;;;;;;5043965;28;19929;-66
2023/05/22 08:27:12;;;;;;;;;;;19.20;99.90;;;;;;5052089;28;20035;-66
2023/05/22 08:29:37;;;;;;;;;;;19.30;99.90;;;;;;5051516;28;19921;-67
2023/05/22 08:32:03;;;;;;;;;;;19.30;99.90;;;;;;5038671;28;19928;-66
2023/05/22 08:34:28;;;;;;;;;;;19.30;99.90;;;;;;5043689;28;19927;-66
2023/05/22 08:36:54;;;;;;;;;;;19.50;99.90;;;;;;5048918;28;20000;-66
2023/05/22 08:39:19;;;;;;;;;;;19.60;99.90;;;;;;5042035;28;19986;-67
2023/05/22 08:41:46;;;;;;;;;;;19.60;99.90;;;;;;5041396;28;20330;-66
2023/05/22 08:44:12;;;;;;;;;;;19.70;99.90;;;;;;5043714;28;20748;-66
2023/05/22 08:46:40;;;;;;;;;;;19.70;99.90;;;;;;5047238;28;19921;-66
2023/05/22 08:49:07;;;;;;;;;;;19.90;99.90;;;;;;5045304;28;19983;-66
2023/05/22 08:51:36;;;;;;;;;;;20.10;99.90;;;;;;5038831;28;20445;-66
2023/05/22 08:54:03;;;;;;;;;;;20.30;99.90;;;;;;5044073;28;19925;-66
2023/05/22 08:56:29;;;;;;;;;;;20.30;99.90;;;;;;5048455;28;19921;-67
2023/05/22 08:58:56;;;;;;;;;;;20.40;99.90;;;;;;5039612;28;20016;-66
2023/05/22 09:01:22;;;;;;;;;;;20.60;99.90;;;;;;5042227;28;19979;-66
2023/05/22 09:03:49;;;;;;;;;;;20.90;99.90;;;;;;5061653;28;19924;-66
2023/05/22 09:06:16;;;;;;;;;;;21.30;99.90;;;;;;5054898;28;20345;-66
2023/05/22 09:08:42;;;;;;;;;;;21.40;99.90;;;;;;5052683;28;19924;-66
2023/05/22 09:11:09;;;;;;;;;;;21.40;99.90;;;;;;5031545;28;19921;-67
2023/05/22 09:13:37;;;;;;;;;;;21.40;99.90;;;;;;5038364;28;19935;-68
2023/05/22 09:16:08;;;;;;;;;;;21.50;99.90;;;;;;5043571;28;19942;-68
2023/05/22 09:18:35;;;;;;;;;;;21.30;99.90;;;;;;5043343;28;19921;-67
2023/05/22 09:21:02;;;;;;;;;;;21.50;99.90;;;;;;5052380;28;20276;-67
2023/05/22 09:23:27;;;;;;;;;;;21.50;99.90;;;;;;5045582;28;20302;-66
2023/05/22 09:25:57;;;;;;;;;;;21.60;99.90;;;;;;5042319;28;19920;-67
2023/05/22 09:28:23;;;;;;;;;;;21.70;99.90;;;;;;5047655;28;19925;-67
2023/05/22 09:30:51;;;;;;;;;;;22.00;99.90;;;;;;5039842;28;20019;-66
2023/05/22 09:33:17;;;;;;;;;;;22.20;99.90;;;;;;5048736;28;19926;-66
2023/05/22 09:35:45;;;;;;;;;;;22.50;99.90;;;;;;5050782;28;19924;-66
2023/05/22 09:38:10;;;;;;;;;;;22.50;99.90;;;;;;5052233;28;20015;-66
2023/05/22 09:40:36;;;;;;;;;;;22.60;99.90;;;;;;5038374;28;20019;-66
2023/05/22 09:43:06;;;;;;;;;;;22.60;99.90;;;;;;5047895;28;19928;-66
2023/05/22 09:45:33;;;;;;;;;;;22.60;99.90;;;;;;5055433;28;19920;-66
2023/05/22 09:47:58;;;;;;;;;;;22.80;99.90;;;;;;5039434;28;19968;-66
2023/05/22 09:50:24;;;;;;;;;;;22.90;99.90;;;;;;5045950;28;20386;-67
2023/05/22 09:52:49;;;;;;;;;;;23.10;99.90;;;;;;5052386;28;20008;-66
2023/05/22 09:55:15;;;;;;;;;;;23.00;99.90;;;;;;5040080;28;19924;-67
2023/05/22 09:57:45;;;;;;;;;;;22.80;99.90;;;;;;5044828;28;19944;-66
2023/05/22 10:00:13;;;;;;;;;;;22.70;99.90;;;;;;5041071;28;19921;-67
2023/05/22 10:02:42;;;;;;;;;;;22.80;99.90;;;;;;5049371;28;19925;-67
2023/05/22 10:05:08;;;;;;;;;;;22.60;99.90;;;;;;5035885;28;19972;-66
2023/05/22 10:07:42;;;;;;;;;;;22.60;99.90;;;;;;5045366;28;19963;-66
2023/05/22 10:10:08;;;;;;;;;;;22.70;99.90;;;;;;5051904;28;20379;-66
2023/05/22 10:12:37;;;;;;;;;;;22.70;99.90;;;;;;5047778;28;19921;-66
2023/05/22 10:15:06;;;;;;;;;;;22.50;99.90;;;;;;5041995;28;20370;-67
2023/05/22 10:17:31;;;;;;;;;;;22.50;99.90;;;;;;5050532;28;20288;-66
2023/05/22 10:19:57;;;;;;;;;;;22.50;99.90;;;;;;5039070;28;19932;-68
2023/05/22 10:22:25;;;;;;;;;;;22.40;99.90;;;;;;5041571;28;19929;-67
2023/05/22 10:24:51;;;;;;;;;;;22.30;99.90;;;;;;5042120;28;19974;-66
2023/05/22 10:27:17;;;;;;;;;;;22.30;99.90;;;;;;5053722;28;19990;-66
2023/05/22 10:29:57;;;;;;;;;;;22.50;99.90;;;;;;5057259;28;19920;-66
2023/05/22 10:32:30;;;;;;;;;;;22.50;99.90;;;;;;5058454;28;19921;-66
2023/05/22 10:34:55;;;;;;;;;;;22.80;99.90;;;;;;5047799;28;19964;-67
2023/05/22 10:37:28;;;;;;;;;;;23.10;99.90;;;;;;5043173;28;20039;-66
2023/05/22 10:40:01;;;;;;;;;;;23.20;99.90;;;;;;5048526;28;19921;-67
2023/05/22 10:42:30;;;;;;;;;;;23.30;99.90;;;;;;5056424;28;19983;-66
2023/05/22 10:44:55;;;;;;;;;;;23.30;99.90;;;;;;5058570;28;19921;-66
2023/05/22 10:47:21;;;;;;;;;;;23.10;99.90;;;;;;5053778;28;19921;-66
2023/05/22 10:49:48;;;;;;;;;;;23.10;99.90;;;;;;5047223;28;19925;-66
2023/05/22 10:52:14;;;;;;;;;;;23.20;99.90;;;;;;5057989;28;19921;-66
2023/05/22 10:54:44;;;;;;;;;;;23.30;99.90;;;;;;5045097;28;19928;-66
2023/05/22 10:57:12;;;;;;;;;;;23.50;99.90;;;;;;5046966;28;19920;-66
2023/05/22 10:59:37;;;;;;;;;;;23.50;99.90;;;;;;5059403;28;20012;-66
2023/05/22 11:02:04;;;;;;;;;;;23.80;99.90;;;;;;5034766;28;19925;-66
2023/05/22 11:04:30;;;;;;;;;;;23.90;99.90;;;;;;5050835;28;19921;-66
2023/05/22 11:07:03;;;;;;;;;;;23.90;99.90;;;;;;5054649;28;19928;-66
2023/05/22 11:09:30;;;;;;;;;;;24.00;99.90;;;;;;5046037;28;19925;-66
2023/05/22 11:12:18;;;;;;;;;;;23.90;99.90;;;;;;5047601;28;19952;-66
2023/05/22 11:14:48;;;;;;;;;;;24.00;99.90;;;;;;5045879;28;19927;-66
2023/05/22 11:17:17;;;;;;;;;;;23.70;99.90;;;;;;5045803;28;20016;-67
2023/05/22 11:19:43;;;;;;;;;;;23.80;99.90;;;;;;5042288;28;19921;-66
2023/05/22 11:22:08;;;;;;;;;;;23.90;99.90;;;;;;5053796;28;19924;-66
2023/05/22 11:24:36;;;;;;;;;;;23.90;99.90;;;;;;5043842;28;20003;-66
2023/05/22 11:27:04;;;;;;;;;;;24.00;99.90;;;;;;5036486;28;19925;-66
2023/05/22 11:29:30;;;;;;;;;;;24.00;99.90;;;;;;5038744;28;19928;-66
2023/05/22 11:31:56;;;;;;;;;;;24.10;99.90;;;;;;5052523;28;19921;-66
2023/05/22 11:34:22;;;;;;;;;;;24.20;99.90;;;;;;5057414;28;20004;-66
2023/05/22 11:36:48;;;;;;;;;;;24.30;99.90;;;;;;5050626;28;19972;-66
2023/05/22 11:39:13;;;;;;;;;;;24.40;99.90;;;;;;5037881;28;20016;-66
2023/05/22 11:41:39;;;;;;;;;;;24.50;99.90;;;;;;5044972;28;19947;-66
2023/05/22 11:44:06;;;;;;;;;;;24.50;99.90;;;;;;5050052;28;19921;-66
2023/05/22 11:46:32;;;;;;;;;;;24.60;99.90;;;;;;5039298;28;20383;-63
2023/05/22 11:48:57;;;;;;;;;;;24.70;99.90;;;;;;5049038;28;19936;-63
2023/05/22 11:51:23;;;;;;;;;;;24.80;99.90;;;;;;5027932;28;19928;-63
2023/05/22 11:53:49;;;;;;;;;;;24.80;99.90;;;;;;5035656;28;19943;-63
2023/05/22 11:56:18;;;;;;;;;;;24.90;99.90;;;;;;5041343;28;19927;-63
2023/05/22 11:58:43;;;;;;;;;;;25.00;99.90;;;;;;5042381;28;20000;-63
2023/05/22 12:01:09;;;;;;;;;;;25.10;99.90;;;;;;5048428;28;20019;-65
2023/05/22 12:03:34;;;;;;;;;;;25.30;99.90;;;;;;5044018;28;19932;-63
2023/05/22 12:06:00;;;;;;;;;;;25.40;99.90;;;;;;5047224;28;19987;-63
2023/05/22 12:08:26;;;;;;;;;;;25.40;99.90;;;;;;5043213;28;19925;-63
2023/05/22 12:10:52;;;;;;;;;;;25.40;99.90;;;;;;5051359;28;19925;-63
2023/05/22 12:13:27;;;;;;;;;;;25.60;99.90;;;;;;5044129;28;20007;-63
2023/05/22 12:15:54;;;;;;;;;;;25.60;99.90;;;;;;5044131;28;19921;-63
2023/05/22 12:18:20;;;;;;;;;;;25.80;99.90;;;;;;5042887;28;19964;-64
2023/05/22 12:20:45;;;;;;;;;;;25.70;99.90;;;;;;5051183;28;19960;-63
2023/05/22 12:23:11;;;;;;;;;;;25.90;99.90;;;;;;5055570;28;19931;-64
2023/05/22 12:25:37;;;;;;;;;;;26.00;99.90;;;;;;5054010;28;19925;-63
2023/05/22 12:28:04;;;;;;;;;;;26.10;99.90;;;;;;5042266;28;20028;-63
2023/05/22 12:30:38;;;;;;;;;;;26.20;99.90;;;;;;5042037;28;19928;-63
2023/05/22 12:33:03;;;;;;;;;;;26.40;99.90;;;;;;5050088;28;19921;-64
2023/05/22 12:35:29;;;;;;;;;;;26.30;98.80;;;;;;5041408;28;20340;-63
2023/05/22 12:37:54;;;;;;;;;;;26.30;97.40;;;;;;5042832;28;19921;-64
2023/05/22 12:40:20;;;;;;;;;;;26.40;99.50;;;;;;5051764;28;20406;-63
2023/05/22 12:42:46;;;;;;;;;;;26.50;99.60;;;;;;5039934;28;19943;-64
2023/05/22 12:45:12;;;;;;;;;;;26.50;98.10;;;;;;5050843;28;20386;-64
2023/05/22 12:47:38;;;;;;;;;;;26.50;97.50;;;;;;5040953;28;19932;-64
2023/05/22 12:50:03;;;;;;;;;;;26.70;97.80;;;;;;5042404;28;19929;-64
2023/05/22 12:52:29;;;;;;;;;;;26.70;96.90;;;;;;5046034;28;19990;-63
2023/05/22 12:54:54;;;;;;;;;;;26.90;97.10;;;;;;5042843;28;20343;-63
2023/05/22 12:57:20;;;;;;;;;;;27.00;98.10;;;;;;5040003;28;19928;-64
2023/05/22 12:59:45;;;;;;;;;;;27.20;97.10;;;;;;5046634;28;19963;-63
2023/05/22 13:02:11;;;;;;;;;;;27.40;95.30;;;;;;5034934;28;19928;-64
2023/05/22 13:04:36;;;;;;;;;;;27.40;95.40;;;;;;5042908;28;19925;-63
2023/05/22 13:07:02;;;;;;;;;;;27.40;95.40;;;;;;5044113;28;19959;-63
2023/05/22 13:09:27;;;;;;;;;;;27.50;93.60;;;;;;5044127;28;19920;-64
2023/05/22 13:11:53;;;;;;;;;;;27.40;92.70;;;;;;5050313;28;19921;-63
2023/05/22 13:14:19;;;;;;;;;;;27.50;94.20;;;;;;5041146;28;20314;-63
2023/05/22 13:16:44;;;;;;;;;;;27.30;93.40;;;;;;5038510;28;19921;-64
2023/05/22 13:19:10;;;;;;;;;;;27.20;95.40;;;;;;5052052;28;19928;-63
2023/05/22 13:21:35;;;;;;;;;;;27.50;96.20;;;;;;5051469;28;20410;-63
2023/05/22 13:24:03;;;;;;;;;;;27.80;94.70;;;;;;5037100;28;19967;-64
2023/05/22 13:26:28;;;;;;;;;;;27.60;92.40;;;;;;5032146;28;20019;-64
2023/05/22 13:28:54;;;;;;;;;;;27.50;93.90;;;;;;5038413;28;19999;-64
2023/05/22 13:31:19;;;;;;;;;;;27.40;94.00;;;;;;5036560;28;20943;-64
2023/05/22 13:33:45;;;;;;;;;;;27.60;93.30;;;;;;5039772;28;19960;-63
2023/05/22 13:36:11;;;;;;;;;;;27.80;93.60;;;;;;5051046;28;19956;-63
2023/05/22 13:38:36;;;;;;;;;;;27.90;93.00;;;;;;5051862;28;19927;-64
2023/05/22 13:41:02;;;;;;;;;;;27.80;93.90;;;;;;5050235;28;19925;-64
2023/05/22 13:43:27;;;;;;;;;;;27.60;92.10;;;;;;5043602;28;19929;-63
2023/05/22 13:45:53;;;;;;;;;;;27.80;93.20;;;;;;5040524;28;19925;-63
2023/05/22 13:48:18;;;;;;;;;;;27.80;93.60;;;;;;5049759;28;20291;-64
2023/05/22 13:50:44;;;;;;;;;;;28.00;92.30;;;;;;5044474;28;19936;-64
2023/05/22 13:53:09;;;;;;;;;;;28.30;92.70;;;;;;5053281;28;19920;-63
2023/05/22 13:55:35;;;;;;;;;;;28.20;91.10;;;;;;5044506;28;19921;-64
2023/05/22 13:58:00;;;;;;;;;;;28.20;92.30;;;;;;5038940;28;20395;-64
2023/05/22 14:00:26;;;;;;;;;;;27.80;94.30;;;;;;5034570;28;19969;-65
2023/05/22 14:02:51;;;;;;;;;;;27.50;92.80;;;;;;5049086;28;20089;-65
2023/05/22 14:05:17;;;;;;;;;;;27.30;92.60;;;;;;5039108;28;19925;-64
2023/05/22 14:07:42;;;;;;;;;;;26.80;92.30;;;;;;5047783;28;19921;-65
2023/05/22 14:10:08;;;;;;;;;;;26.50;93.40;;;;;;5041083;28;19933;-66
2023/05/22 14:12:33;;;;;;;;;;;26.40;93.70;;;;;;5042243;28;19920;-65